Time;durP1;ratioP1;P1;durP2;ratioP2;P2;SDS_P1;SDS_P2;PMS_P1;PMS_P2;Temp;Humidity;BMP_temperature;BMP_pressure;BME280_temperature;BME280_humidity;BME280_pressure;Samples;Min_cycle;Max_cycle;Signal;HPM_P1;HPM_P2
2023/05/18 00:02:06;;;;;;;4.88;3.22;;;5.80;99.90;;;;;;5157155;27;20042;-33
2023/05/18 00:04:35;;;;;;;4.40;2.60;;;5.80;99.90;;;;;;5136924;27;20035;-33
2023/05/18 00:07:02;;;;;;;6.43;2.80;;;5.80;99.90;;;;;;5136552;27;20377;-35
2023/05/18 00:09:30;;;;;;;6.63;2.90;;;5.70;99.90;;;;;;5146296;27;20120;-35
2023/05/18 00:11:57;;;;;;;4.82;3.00;;;5.70;99.90;;;;;;5138489;27;20058;-34
2023/05/18 00:14:23;;;;;;;6.72;3.17;;;5.70;99.90;;;;;;5136202;27;20039;-35
2023/05/18 00:16:48;;;;;;;5.60;3.08;;;5.60;99.90;;;;;;5135816;27;20039;-34
2023/05/18 00:19:15;;;;;;;8.23;2.90;;;5.60;99.90;;;;;;5118826;27;20034;-35
2023/05/18 00:21:41;;;;;;;7.25;2.92;;;5.60;99.90;;;;;;5142891;27;20117;-36
2023/05/18 00:24:09;;;;;;;5.22;2.92;;;5.60;99.90;;;;;;5156934;27;20495;-36
2023/05/18 00:26:37;;;;;;;5.93;2.88;;;5.60;99.90;;;;;;5153939;27;20454;-36
2023/05/18 00:29:02;;;;;;;8.13;3.50;;;5.60;99.90;;;;;;5155827;27;20030;-35
2023/05/18 00:31:28;;;;;;;5.53;2.88;;;5.50;99.90;;;;;;5142125;27;20037;-33
2023/05/18 00:33:54;;;;;;;8.30;3.72;;;5.50;99.90;;;;;;5147117;27;20484;-33
2023/05/18 00:36:20;;;;;;;6.07;2.92;;;5.50;99.90;;;;;;5135913;27;20035;-36
2023/05/18 00:38:45;;;;;;;10.20;3.38;;;5.40;99.90;;;;;;5143881;27;20085;-36
2023/05/18 00:41:11;;;;;;;7.13;3.03;;;5.40;99.90;;;;;;5142232;27;20035;-38
2023/05/18 00:43:40;;;;;;;7.68;3.17;;;5.30;99.90;;;;;;5151252;27;20476;-35
2023/05/18 00:46:06;;;;;;;7.78;3.60;;;5.30;99.90;;;;;;5148202;27;20039;-36
2023/05/18 00:48:31;;;;;;;7.50;3.13;;;5.30;99.90;;;;;;5135455;27;20117;-36
2023/05/18 00:50:57;;;;;;;4.85;3.05;;;5.20;99.90;;;;;;5141528;27;20042;-36
2023/05/18 00:53:23;;;;;;;6.82;2.60;;;5.20;99.90;;;;;;5144429;27;20038;-35
2023/05/18 00:55:49;;;;;;;6.68;3.13;;;5.20;99.90;;;;;;5150080;27;20039;-32
2023/05/18 00:58:15;;;;;;;6.78;3.20;;;5.10;99.90;;;;;;5143429;27;20105;-36
2023/05/18 01:00:41;;;;;;;6.30;3.28;;;5.10;99.90;;;;;;5141184;27;20410;-33
2023/05/18 01:03:09;;;;;;;9.88;3.55;;;5.10;99.90;;;;;;5141356;27;20041;-39
2023/05/18 01:05:35;;;;;;;7.32;3.50;;;5.10;99.90;;;;;;5156253;27;20078;-38
2023/05/18 01:08:02;;;;;;;5.60;3.45;;;5.00;99.90;;;;;;5143239;27;20034;-35
2023/05/18 01:10:31;;;;;;;4.30;3.00;;;5.00;99.90;;;;;;5156373;27;20424;-36
2023/05/18 01:13:02;;;;;;;6.38;2.85;;;4.90;99.90;;;;;;5140116;27;20041;-38
2023/05/18 01:15:36;;;;;;;8.57;3.33;;;4.90;99.90;;;;;;5157704;27;20121;-33
2023/05/18 01:18:30;;;;;;;3.72;2.80;;;4.90;99.90;;;;;;5158698;27;20038;-35
2023/05/18 01:20:56;;;;;;;;;;;4.90;99.90;;;;;;5146028;27;20117;-34
2023/05/18 01:23:59;;;;;;;5.80;3.60;;;4.90;99.90;;;;;;5156041;27;19962;-35
2023/05/18 01:26:30;;;;;;;6.88;3.28;;;4.80;99.90;;;;;;5152232;27;20039;-35
2023/05/18 01:29:00;;;;;;;5.28;3.28;;;4.80;99.90;;;;;;5148156;27;20035;-33
2023/05/18 01:31:27;;;;;;;4.78;2.92;;;4.80;99.90;;;;;;5150976;27;20043;-34
2023/05/18 01:33:53;;;;;;;7.47;3.40;;;4.70;99.90;;;;;;5154009;27;20034;-36
2023/05/18 01:36:19;;;;;;;5.82;3.60;;;4.70;99.90;;;;;;5149672;27;20031;-35
2023/05/18 01:38:45;;;;;;;7.28;3.45;;;4.70;99.90;;;;;;5149525;27;20038;-37
2023/05/18 01:41:25;;;;;;;5.13;3.00;;;4.70;99.90;;;;;;5138238;27;20117;-35
2023/05/18 01:44:14;;;;;;;7.70;3.35;;;4.70;99.90;;;;;;5147872;27;20103;-33
2023/05/18 01:47:06;;;;;;;5.70;3.28;;;4.70;99.90;;;;;;5159975;27;20046;-36
2023/05/18 01:49:51;;;;;;;8.82;3.90;;;4.60;99.90;;;;;;5168001;27;20041;-35
2023/05/18 01:52:32;;;;;;;6.40;3.60;;;4.60;99.90;;;;;;5140399;27;20089;-37
2023/05/18 01:55:02;;;;;;;7.32;3.20;;;4.50;99.90;;;;;;5139279;27;20045;-35
2023/05/18 01:57:30;;;;;;;7.93;3.60;;;4.50;99.90;;;;;;5152724;27;20095;-35
2023/05/18 01:59:58;;;;;;;4.53;3.28;;;4.50;99.90;;;;;;5148531;27;20031;-36
2023/05/18 02:02:25;;;;;;;7.82;3.45;;;4.50;99.90;;;;;;5152354;27;20449;-36
2023/05/18 02:04:51;;;;;;;6.72;3.47;;;4.50;99.90;;;;;;5158639;27;20038;-35
2023/05/18 02:07:17;;;;;;;10.50;3.70;;;4.50;99.90;;;;;;5143075;27;20034;-33
2023/05/18 02:09:43;;;;;;;9.23;3.88;;;4.50;99.90;;;;;;5134298;27;20045;-34
2023/05/18 02:12:09;;;;;;;8.98;3.45;;;4.50;99.90;;;;;;5168137;27;20045;-34
2023/05/18 02:14:35;;;;;;;8.25;3.72;;;4.50;99.90;;;;;;5165303;27;20034;-33
2023/05/18 02:17:01;;;;;;;4.88;3.05;;;4.50;99.90;;;;;;5139159;27;20050;-35
2023/05/18 02:19:29;;;;;;;6.45;3.42;;;4.50;99.90;;;;;;5158214;27;20026;-33
2023/05/18 02:21:56;;;;;;;6.63;3.50;;;4.60;99.90;;;;;;5138296;27;20042;-34
2023/05/18 02:24:23;;;;;;;9.43;3.28;;;4.60;99.90;;;;;;5156743;27;20030;-36
2023/05/18 02:26:52;;;;;;;4.90;3.20;;;4.60;99.90;;;;;;5159349;27;20545;-36
2023/05/18 02:29:17;;;;;;;5.50;3.58;;;4.60;99.90;;;;;;5135772;27;20042;-35
2023/05/18 02:31:43;;;;;;;9.70;3.83;;;4.70;99.90;;;;;;5156902;27;20548;-34
2023/05/18 02:34:09;;;;;;;6.03;3.22;;;4.70;99.90;;;;;;5138364;27;20102;-39
2023/05/18 02:36:41;;;;;;;7.60;4.03;;;4.70;99.90;;;;;;5147469;27;20539;-35
2023/05/18 02:39:08;;;;;;;4.10;3.63;;;4.70;99.90;;;;;;5138016;27;20035;-35
2023/05/18 02:41:35;;;;;;;7.10;3.63;;;4.70;99.90;;;;;;5138429;27;20030;-35
2023/05/18 02:44:01;;;;;;;7.43;3.70;;;4.70;99.90;;;;;;5148020;27;20033;-35
2023/05/18 02:46:28;;;;;;;9.73;3.70;;;4.70;99.90;;;;;;5144856;27;20065;-36
2023/05/18 02:48:53;;;;;;;6.88;3.58;;;4.70;99.90;;;;;;5149426;27;20035;-36
2023/05/18 02:51:20;;;;;;;13.02;3.88;;;4.70;99.90;;;;;;5150446;27;20447;-35
2023/05/18 02:53:46;;;;;;;6.57;3.30;;;4.70;99.90;;;;;;5151303;27;20179;-36
2023/05/18 02:56:12;;;;;;;8.98;4.00;;;4.70;99.90;;;;;;5137960;27;20121;-36
2023/05/18 02:58:38;;;;;;;8.65;3.50;;;4.70;99.90;;;;;;5139120;27;20472;-33
2023/05/18 03:01:07;;;;;;;8.95;3.35;;;4.70;99.90;;;;;;5149022;27;20510;-36
2023/05/18 03:03:33;;;;;;;9.80;4.00;;;4.70;99.90;;;;;;5140245;27;20489;-35
2023/05/18 03:06:02;;;;;;;7.75;3.67;;;4.70;99.90;;;;;;5137866;27;20035;-35
2023/05/18 03:08:30;;;;;;;10.32;3.85;;;4.60;99.90;;;;;;5137499;27;20053;-36
2023/05/18 03:10:56;;;;;;;10.15;3.80;;;4.60;99.90;;;;;;5149589;27;20070;-35
2023/05/18 03:13:22;;;;;;;9.02;4.40;;;4.60;99.90;;;;;;5147943;27;20403;-35
2023/05/18 03:15:49;;;;;;;6.57;3.58;;;4.60;99.90;;;;;;5137207;27;20121;-36
2023/05/18 03:18:15;;;;;;;9.48;3.78;;;4.50;99.90;;;;;;5137119;27;20075;-37
2023/05/18 03:20:43;;;;;;;8.55;4.45;;;4.50;99.90;;;;;;5139472;27;20476;-36
2023/05/18 03:23:09;;;;;;;7.00;3.95;;;4.50;99.90;;;;;;5148717;27;20066;-36
2023/05/18 03:25:36;;;;;;;8.38;3.55;;;4.50;99.90;;;;;;5154957;27;20110;-34
2023/05/18 03:28:03;;;;;;;6.22;3.40;;;4.40;99.90;;;;;;5149740;27;20074;-36
2023/05/18 03:30:33;;;;;;;8.35;4.25;;;4.40;99.90;;;;;;5142931;27;20042;-35
2023/05/18 03:33:00;;;;;;;5.00;3.50;;;4.40;99.90;;;;;;5137370;27;20031;-37
2023/05/18 03:35:26;;;;;;;9.10;4.00;;;4.40;99.90;;;;;;5137490;27;20612;-37
2023/05/18 03:37:52;;;;;;;9.38;4.50;;;4.30;99.90;;;;;;5145185;27;20041;-34
2023/05/18 03:40:19;;;;;;;8.07;4.03;;;4.30;99.90;;;;;;5148153;27;20117;-36
2023/05/18 03:42:45;;;;;;;7.53;4.35;;;4.30;99.90;;;;;;5137098;27;20095;-35
2023/05/18 03:45:11;;;;;;;6.00;3.55;;;4.30;99.90;;;;;;5151966;27;20035;-37
2023/05/18 03:47:38;;;;;;;8.50;4.25;;;4.30;99.90;;;;;;5157202;27;20141;-36
2023/05/18 03:50:04;;;;;;;5.30;3.97;;;4.30;99.90;;;;;;5145046;27;20105;-34
2023/05/18 03:52:32;;;;;;;8.50;4.00;;;4.30;99.90;;;;;;5157285;27;20121;-36
2023/05/18 03:55:00;;;;;;;8.55;3.53;;;4.30;99.90;;;;;;5142980;27;20394;-35
2023/05/18 03:57:27;;;;;;;7.35;3.90;;;4.30;99.90;;;;;;5155568;27;20502;-36
2023/05/18 03:59:53;;;;;;;8.88;4.15;;;4.30;99.90;;;;;;5138284;27;20035;-33
2023/05/18 04:02:19;;;;;;;10.93;4.10;;;4.30;99.90;;;;;;5135687;27;20034;-36
2023/05/18 04:04:46;;;;;;;8.23;4.00;;;4.30;99.90;;;;;;5138748;27;20039;-36
2023/05/18 04:07:15;;;;;;;7.40;4.43;;;4.30;99.90;;;;;;5140302;27;20042;-35
2023/05/18 04:09:42;;;;;;;6.03;4.07;;;4.40;99.90;;;;;;5136230;27;20038;-37
2023/05/18 04:12:08;;;;;;;8.68;4.45;;;4.40;99.90;;;;;;5153076;27;20097;-35
2023/05/18 04:14:34;;;;;;;7.80;3.72;;;4.40;99.90;;;;;;5149538;27;20037;-35
2023/05/18 04:17:06;;;;;;;4.85;3.80;;;4.40;99.90;;;;;;5137211;27;20042;-35
2023/05/18 04:19:36;;;;;;;5.32;3.47;;;4.40;99.90;;;;;;5144839;27;20034;-36
2023/05/18 04:22:03;;;;;;;10.52;4.63;;;4.50;99.90;;;;;;5152163;27;20027;-37
2023/05/18 04:24:31;;;;;;;9.30;4.35;;;4.50;99.90;;;;;;5143417;27;20035;-37
2023/05/18 04:27:00;;;;;;;7.30;4.38;;;4.50;99.90;;;;;;5148329;27;20034;-35
2023/05/18 04:29:27;;;;;;;8.25;4.07;;;4.50;99.90;;;;;;5142853;27;20122;-36
2023/05/18 04:31:59;;;;;;;5.38;4.35;;;4.60;99.90;;;;;;5148165;27;20095;-36
2023/05/18 04:34:26;;;;;;;7.22;4.15;;;4.60;99.90;;;;;;5146107;27;20061;-36
2023/05/18 04:36:55;;;;;;;7.10;4.28;;;4.70;99.90;;;;;;5145019;27;20035;-36
2023/05/18 04:39:24;;;;;;;6.20;4.15;;;4.70;99.90;;;;;;5145646;27;20076;-37
2023/05/18 04:41:57;;;;;;;7.90;4.57;;;4.80;99.90;;;;;;5136633;27;20062;-37
2023/05/18 04:44:32;;;;;;;10.77;4.50;;;4.90;99.90;;;;;;5146919;27;20085;-36
2023/05/18 04:46:59;;;;;;;9.18;4.35;;;4.90;99.90;;;;;;5143893;27;20137;-36
2023/05/18 04:49:26;;;;;;;8.55;3.88;;;5.00;99.90;;;;;;5156021;27;20114;-37
2023/05/18 04:51:57;;;;;;;8.13;4.05;;;5.10;99.90;;;;;;5140878;27;20038;-36
2023/05/18 04:54:31;;;;;;;10.82;3.97;;;5.10;99.90;;;;;;5135824;27;20035;-33
2023/05/18 04:56:57;;;;;;;;;;;5.20;99.90;;;;;;5145904;27;20479;-34
2023/05/18 04:59:25;;;;;;;6.30;4.00;;;5.30;99.90;;;;;;5145917;27;19979;-34
2023/05/18 05:01:54;;;;;;;7.47;4.07;;;5.30;99.90;;;;;;5152403;27;20039;-35
2023/05/18 05:04:21;;;;;;;12.65;4.53;;;5.40;99.90;;;;;;5148612;27;20027;-34
2023/05/18 05:06:46;;;;;;;6.78;3.42;;;5.40;99.90;;;;;;5152941;27;20034;-36
2023/05/18 05:09:13;;;;;;;5.93;3.53;;;5.50;99.90;;;;;;5154888;27;20118;-35
2023/05/18 05:11:40;;;;;;;7.07;4.70;;;5.60;99.90;;;;;;5137231;27;20101;-35
2023/05/18 05:14:06;;;;;;;5.63;3.55;;;5.70;99.90;;;;;;5152170;27;20391;-36
2023/05/18 05:16:33;;;;;;;8.43;3.47;;;5.80;99.90;;;;;;5153432;27;20034;-36
2023/05/18 05:18:58;;;;;;;4.93;3.15;;;5.90;99.90;;;;;;5153936;27;20073;-36
2023/05/18 05:21:24;;;;;;;7.15;3.15;;;6.00;99.90;;;;;;5148081;27;20057;-36
2023/05/18 05:23:50;;;;;;;10.75;3.30;;;6.10;99.90;;;;;;5154253;27;20034;-34
2023/05/18 05:26:17;;;;;;;7.65;3.00;;;6.30;99.90;;;;;;5135528;27;20095;-34
2023/05/18 05:28:43;;;;;;;5.20;2.50;;;6.30;99.90;;;;;;5120054;27;20121;-36
2023/05/18 05:31:09;;;;;;;6.57;3.20;;;6.40;99.90;;;;;;5135173;27;20445;-37
2023/05/18 05:33:35;;;;;;;5.07;2.92;;;6.50;99.90;;;;;;5140736;27;20114;-33
2023/05/18 05:36:03;;;;;;;6.60;3.15;;;6.60;99.90;;;;;;5149723;27;20485;-35
2023/05/18 05:38:29;;;;;;;7.57;3.20;;;6.70;99.90;;;;;;5139434;27;20089;-37
2023/05/18 05:40:55;;;;;;;8.43;3.35;;;6.80;99.90;;;;;;5135738;27;20179;-37
2023/05/18 05:43:21;;;;;;;5.18;3.28;;;6.90;99.90;;;;;;5139712;27;20030;-37
2023/05/18 05:45:49;;;;;;;6.90;3.08;;;7.10;99.90;;;;;;5155895;27;20114;-36
2023/05/18 05:48:15;;;;;;;8.30;3.17;;;7.20;99.90;;;;;;5148007;27;20539;-35
2023/05/18 05:50:41;;;;;;;7.25;3.60;;;7.40;99.90;;;;;;5155656;27;20062;-34
2023/05/18 05:53:07;;;;;;;6.47;3.42;;;7.50;99.90;;;;;;5138863;27;20445;-36
2023/05/18 05:55:39;;;;;;;10.27;3.08;;;7.70;99.90;;;;;;5153979;27;20070;-36
2023/05/18 05:58:06;;;;;;;8.38;3.28;;;7.80;99.90;;;;;;5136899;27;20054;-33
2023/05/18 06:00:31;;;;;;;7.53;3.03;;;8.00;99.90;;;;;;5157936;27;20033;-33
2023/05/18 06:02:58;;;;;;;6.88;3.10;;;8.20;99.90;;;;;;5148207;27;20403;-33
2023/05/18 06:05:24;;;;;;;9.13;2.97;;;8.40;99.90;;;;;;5153386;27;20045;-33
2023/05/18 06:07:49;;;;;;;7.97;2.67;;;8.60;99.90;;;;;;5145203;27;20038;-33
2023/05/18 06:10:15;;;;;;;8.57;2.15;;;8.70;99.90;;;;;;5144232;27;20039;-33
2023/05/18 06:12:41;;;;;;;7.00;2.63;;;8.90;99.90;;;;;;5135886;27;20435;-33
2023/05/18 06:15:07;;;;;;;2.92;2.45;;;9.00;99.90;;;;;;5152972;27;20291;-34
2023/05/18 06:17:34;;;;;;;6.65;2.47;;;9.10;99.90;;;;;;5145652;27;20053;-33
2023/05/18 06:20:00;;;;;;;5.60;2.60;;;9.20;99.90;;;;;;5134671;27;20067;-33
2023/05/18 06:22:26;;;;;;;6.10;2.35;;;9.30;99.90;;;;;;5149039;27;20547;-33
2023/05/18 06:24:52;;;;;;;6.70;2.20;;;9.30;99.90;;;;;;5134452;27;20072;-33
2023/05/18 06:27:18;;;;;;;7.43;3.22;;;9.40;99.90;;;;;;5146809;27;20082;-33
2023/05/18 06:29:44;;;;;;;7.28;2.50;;;9.50;99.90;;;;;;5155405;27;20038;-33
2023/05/18 06:32:12;;;;;;;4.72;2.33;;;9.50;99.90;;;;;;5142185;27;20049;-33
2023/05/18 06:34:38;;;;;;;4.28;2.10;;;9.60;99.90;;;;;;5151260;27;20045;-33
2023/05/18 06:37:04;;;;;;;4.72;2.28;;;9.70;99.90;;;;;;5138665;27;20543;-33
2023/05/18 06:39:30;;;;;;;6.72;2.72;;;9.70;99.90;;;;;;5147626;27;20034;-34
2023/05/18 06:41:56;;;;;;;9.43;2.35;;;9.70;99.90;;;;;;5138297;27;20108;-33
2023/05/18 06:44:21;;;;;;;5.40;2.22;;;9.80;99.90;;;;;;5143729;27;20424;-33
2023/05/18 06:46:47;;;;;;;5.70;2.55;;;9.90;99.90;;;;;;5175996;27;20038;-33
2023/05/18 06:49:13;;;;;;;2.97;2.25;;;9.90;99.90;;;;;;5143005;27;20030;-33
2023/05/18 06:51:40;;;;;;;8.52;2.47;;;9.90;99.90;;;;;;5152340;27;20034;-33
2023/05/18 06:54:07;;;;;;;7.28;2.15;;;9.90;99.90;;;;;;5150219;27;20038;-33
2023/05/18 06:56:33;;;;;;;5.15;2.45;;;9.90;99.90;;;;;;5161365;27;20030;-33
2023/05/18 06:58:58;;;;;;;8.13;2.63;;;10.00;99.90;;;;;;5144122;27;20445;-34
2023/05/18 07:01:24;;;;;;;6.40;2.83;;;10.00;99.90;;;;;;5143741;27;20030;-33
2023/05/18 07:03:50;;;;;;;5.53;2.97;;;9.90;99.90;;;;;;5132091;27;20082;-33
2023/05/18 07:06:16;;;;;;;6.45;2.38;;;9.90;99.90;;;;;;5150050;27;20035;-33
2023/05/18 07:08:43;;;;;;;7.45;3.88;;;9.80;99.90;;;;;;5154422;27;20491;-33
2023/05/18 07:11:09;;;;;;;6.22;2.63;;;10.00;99.90;;;;;;5156044;27;20061;-33
2023/05/18 07:13:35;;;;;;;9.25;2.67;;;9.90;99.90;;;;;;5154961;27;20039;-33
2023/05/18 07:16:00;;;;;;;6.88;2.28;;;10.00;99.90;;;;;;5146246;27;20212;-33
2023/05/18 07:18:26;;;;;;;4.78;2.65;;;10.10;99.90;;;;;;5143342;27;20066;-33
2023/05/18 07:20:52;;;;;;;8.00;2.30;;;10.10;99.90;;;;;;5156213;27;20036;-33
2023/05/18 07:23:18;;;;;;;4.80;2.20;;;10.10;99.90;;;;;;5146823;27;20098;-34
2023/05/18 07:25:44;;;;;;;7.57;2.70;;;10.10;99.90;;;;;;5169025;27;20483;-33
2023/05/18 07:28:09;;;;;;;3.67;2.25;;;10.10;99.90;;;;;;5157789;27;20037;-33
2023/05/18 07:30:35;;;;;;;7.95;2.30;;;10.20;99.90;;;;;;5161614;27;20142;-33
2023/05/18 07:33:01;;;;;;;6.07;2.50;;;10.20;99.90;;;;;;5157194;27;20039;-33
2023/05/18 07:35:27;;;;;;;6.25;2.20;;;10.20;99.90;;;;;;5144330;27;20118;-34
2023/05/18 07:37:53;;;;;;;6.18;2.97;;;10.20;99.90;;;;;;5134910;27;20031;-33
2023/05/18 07:40:19;;;;;;;4.88;2.53;;;10.30;99.90;;;;;;5142616;27;20035;-33
2023/05/18 07:42:45;;;;;;;6.70;2.40;;;10.40;99.90;;;;;;5150713;27;20044;-33
2023/05/18 07:45:12;;;;;;;12.20;3.08;;;10.60;99.90;;;;;;5143419;27;20030;-33
2023/05/18 07:47:38;;;;;;;7.90;2.17;;;10.70;99.90;;;;;;5139550;27;20090;-33
2023/05/18 07:50:05;;;;;;;5.72;2.38;;;10.70;99.90;;;;;;5150433;27;20129;-35
2023/05/18 07:52:31;;;;;;;4.63;2.33;;;10.70;99.90;;;;;;5157092;27;20039;-33
2023/05/18 07:54:57;;;;;;;4.10;2.00;;;10.90;99.90;;;;;;5149417;27;20047;-33
2023/05/18 07:57:23;;;;;;;5.40;2.50;;;11.30;99.90;;;;;;5142445;27;20404;-33
2023/05/18 07:59:50;;;;;;;5.93;2.00;;;11.60;99.90;;;;;;5151318;27;20488;-33
2023/05/18 08:02:16;;;;;;;8.00;2.83;;;12.10;99.90;;;;;;5144790;27;20034;-33
2023/05/18 08:04:42;;;;;;;6.43;2.60;;;12.40;99.90;;;;;;5140028;27;20516;-34
2023/05/18 08:07:09;;;;;;;6.03;2.13;;;12.50;99.90;;;;;;5142410;27;20058;-33
2023/05/18 08:09:35;;;;;;;4.53;2.22;;;12.80;99.90;;;;;;5152993;27;20053;-33
2023/05/18 08:12:01;;;;;;;5.65;2.20;;;13.00;99.90;;;;;;5144571;27;20034;-33
2023/05/18 08:14:27;;;;;;;3.25;1.85;;;13.10;99.90;;;;;;5143605;27;20122;-33
2023/05/18 08:16:52;;;;;;;7.13;2.38;;;13.20;99.90;;;;;;5142482;27;20380;-33
2023/05/18 08:19:18;;;;;;;6.28;2.30;;;13.30;99.90;;;;;;5151790;27;20085;-33
2023/05/18 08:21:45;;;;;;;5.13;2.10;;;13.40;99.90;;;;;;5152713;27;20042;-33
2023/05/18 08:24:11;;;;;;;6.18;2.22;;;13.40;99.90;;;;;;5139643;27;20460;-33
2023/05/18 08:26:37;;;;;;;4.82;2.40;;;13.30;99.30;;;;;;5165064;27;20044;-34
2023/05/18 08:29:08;;;;;;;5.82;2.50;;;13.30;99.30;;;;;;5149884;27;20436;-33
2023/05/18 08:31:39;;;;;;;6.68;2.65;;;13.50;99.50;;;;;;5148268;27;20092;-33
2023/05/18 08:34:05;;;;;;;9.18;2.58;;;13.90;98.90;;;;;;5137197;27;20053;-34
2023/05/18 08:36:32;;;;;;;7.05;2.22;;;14.00;96.20;;;;;;5154343;27;20034;-33
2023/05/18 08:38:59;;;;;;;4.25;2.13;;;13.90;94.80;;;;;;5147594;27;20036;-34
2023/05/18 08:41:51;;;;;;;5.03;2.05;;;14.00;95.60;;;;;;5146651;27;20041;-34
2023/05/18 08:44:24;;;;;;;4.18;2.33;;;13.90;89.30;;;;;;5101462;27;20491;-34
2023/05/18 08:46:50;;;;;;;4.07;1.85;;;13.80;91.40;;;;;;5144953;27;20046;-33
2023/05/18 08:49:18;;;;;;;5.40;2.70;;;13.80;92.80;;;;;;5144525;27;20062;-34
2023/05/18 08:51:53;;;;;;;6.28;2.47;;;13.80;92.60;;;;;;5146547;27;20543;-33
2023/05/18 08:54:20;;;;;;;7.15;2.28;;;13.90;91.60;;;;;;5147414;27;20041;-34
2023/05/18 08:56:47;;;;;;;3.47;2.15;;;14.00;91.00;;;;;;5151297;27;20051;-33
2023/05/18 08:59:17;;;;;;;5.18;2.40;;;14.50;87.80;;;;;;5135622;27;20399;-34
2023/05/18 09:01:43;;;;;;;4.97;2.15;;;14.80;83.10;;;;;;5151933;27;20042;-34
2023/05/18 09:04:09;;;;;;;6.68;2.05;;;15.00;83.30;;;;;;5144480;27;20034;-33
2023/05/18 09:06:36;;;;;;;4.72;2.22;;;15.10;82.90;;;;;;5152277;27;20070;-34
2023/05/18 09:09:03;;;;;;;6.30;2.80;;;15.40;79.90;;;;;;5152279;27;20190;-33
2023/05/18 09:11:31;;;;;;;7.03;2.30;;;15.50;77.10;;;;;;5141722;27;20034;-34
2023/05/18 09:13:58;;;;;;;4.28;2.22;;;15.80;79.60;;;;;;5139304;27;20035;-34
2023/05/18 09:16:24;;;;;;;3.88;2.20;;;16.10;73.00;;;;;;5147283;27;20035;-34
2023/05/18 09:18:50;;;;;;;6.22;2.33;;;16.30;72.70;;;;;;5153542;27;20030;-34
2023/05/18 09:21:16;;;;;;;6.53;2.60;;;16.20;70.80;;;;;;5142466;27;20083;-35
2023/05/18 09:23:43;;;;;;;5.72;2.40;;;16.20;69.70;;;;;;5144581;27;20053;-34
2023/05/18 09:26:10;;;;;;;6.03;2.80;;;16.40;69.40;;;;;;5144722;27;20042;-35
2023/05/18 09:28:38;;;;;;;5.53;2.58;;;16.50;66.80;;;;;;5151788;27;20395;-34
2023/05/18 09:31:07;;;;;;;3.10;2.38;;;16.50;64.60;;;;;;5144208;27;20051;-34
2023/05/18 09:33:38;;;;;;;5.95;2.42;;;16.40;64.90;;;;;;5148363;27;20100;-34
2023/05/18 09:36:06;;;;;;;5.72;2.17;;;16.90;63.80;;;;;;5155575;27;20095;-32
2023/05/18 09:38:36;;;;;;;6.32;2.20;;;17.30;62.60;;;;;;5155696;27;20069;-32
2023/05/18 09:41:03;;;;;;;7.18;2.38;;;17.60;59.40;;;;;;5150132;27;20026;-32
2023/05/18 09:43:29;;;;;;;5.05;2.70;;;17.90;60.50;;;;;;5169235;27;20033;-31
2023/05/18 09:45:54;;;;;;;6.25;2.60;;;18.10;59.40;;;;;;5147598;27;20038;-32
2023/05/18 09:48:21;;;;;;;7.47;2.55;;;18.50;58.70;;;;;;5155263;27;20034;-32
2023/05/18 09:50:48;;;;;;;6.03;2.45;;;18.50;57.30;;;;;;5152015;27;20034;-32
2023/05/18 09:53:14;;;;;;;6.10;2.10;;;18.60;57.30;;;;;;5147777;27;20114;-32
2023/05/18 09:55:48;;;;;;;4.70;2.20;;;18.60;56.50;;;;;;5148440;27;20118;-32
2023/05/18 09:58:15;;;;;;;6.43;2.25;;;18.90;55.10;;;;;;5150504;27;20557;-32
2023/05/18 10:00:43;;;;;;;5.38;2.22;;;18.90;55.50;;;;;;5131064;27;20549;-32
2023/05/18 10:03:20;;;;;;;4.28;2.25;;;18.90;54.10;;;;;;5151351;27;20037;-32
2023/05/18 10:05:46;;;;;;;4.53;2.20;;;18.80;51.40;;;;;;5154904;27;20037;-32
2023/05/18 10:08:16;;;;;;;5.30;2.10;;;19.00;52.90;;;;;;5151641;27;20049;-32
2023/05/18 10:10:45;;;;;;;3.78;2.38;;;19.30;52.90;;;;;;5149202;27;20126;-32
2023/05/18 10:13:17;;;;;;;4.88;2.38;;;19.50;52.80;;;;;;5147061;27;20034;-32
2023/05/18 10:15:55;;;;;;;7.55;2.72;;;19.40;52.60;;;;;;5148224;27;20506;-32
2023/05/18 10:18:25;;;;;;;3.80;2.08;;;19.30;50.70;;;;;;5147790;27;20047;-32
2023/05/18 10:20:53;;;;;;;5.50;2.13;;;19.40;51.40;;;;;;5142765;27;20059;-33
2023/05/18 10:23:21;;;;;;;4.43;2.03;;;19.50;51.70;;;;;;5148694;27;20372;-32
2023/05/18 10:25:49;;;;;;;5.00;2.33;;;19.80;51.40;;;;;;5153906;27;20447;-37
2023/05/18 10:28:24;;;;;;;5.18;2.35;;;19.70;50.80;;;;;;5169473;27;20038;-32
2023/05/18 10:30:53;;;;;;;4.78;2.30;;;19.70;50.10;;;;;;5167438;27;20034;-32
2023/05/18 10:33:27;;;;;;;6.15;2.30;;;19.40;50.00;;;;;;5153187;27;20037;-32
2023/05/18 10:35:54;;;;;;;6.65;2.58;;;19.60;50.80;;;;;;5149651;27;20112;-32
2023/05/18 10:38:25;;;;;;;5.85;2.60;;;19.60;51.40;;;;;;5149607;27;20034;-33
2023/05/18 10:40:55;;;;;;;4.55;2.45;;;19.40;50.10;;;;;;5150049;27;20038;-32
2023/05/18 10:43:28;;;;;;;5.13;2.20;;;19.50;50.20;;;;;;5150386;27;20027;-32
2023/05/18 10:45:59;;;;;;;6.43;2.78;;;19.50;50.40;;;;;;5155284;27;20030;-32
2023/05/18 10:48:26;;;;;;;7.80;2.72;;;19.50;49.50;;;;;;5151424;27;20250;-31
2023/05/18 10:50:54;;;;;;;5.72;2.60;;;19.60;49.40;;;;;;5152523;27;20038;-31
2023/05/18 10:53:31;;;;;;;4.28;2.40;;;19.70;49.50;;;;;;5152637;27;20498;-32
2023/05/18 10:55:57;;;;;;;4.70;2.53;;;19.90;48.30;;;;;;5137102;27;20039;-32
2023/05/18 10:58:25;;;;;;;7.53;2.85;;;19.90;48.40;;;;;;5152888;27;20082;-32
2023/05/18 11:00:55;;;;;;;4.07;2.15;;;19.80;48.30;;;;;;5152858;27;20038;-32
2023/05/18 11:03:22;;;;;;;5.97;2.38;;;19.80;48.00;;;;;;5150366;27;20042;-32
2023/05/18 11:05:50;;;;;;;5.13;2.28;;;20.00;48.50;;;;;;5147446;27;20065;-32
2023/05/18 11:08:26;;;;;;;5.90;2.50;;;20.10;48.20;;;;;;5149944;27;20044;-32
2023/05/18 11:11:22;;;;;;;5.00;2.33;;;19.90;47.80;;;;;;5141573;27;20428;-32
2023/05/18 11:13:50;;;;;;;4.85;2.38;;;20.00;48.40;;;;;;5145695;27;20050;-32
2023/05/18 11:16:17;;;;;;;5.63;2.80;;;20.00;48.50;;;;;;5152181;27;20061;-32
2023/05/18 11:19:06;;;;;;;7.40;3.00;;;20.30;48.40;;;;;;5148196;27;20042;-33
2023/05/18 11:21:35;;;;;;;4.40;2.20;;;20.40;47.70;;;;;;5151133;27;20030;-33
2023/05/18 11:24:17;;;;;;;4.75;2.35;;;20.60;47.20;;;;;;5153414;27;20052;-32
2023/05/18 11:26:52;;;;;;;6.63;2.72;;;20.80;46.30;;;;;;5147120;27;20099;-33
2023/05/18 11:29:20;;;;;;;5.65;2.80;;;21.00;46.90;;;;;;5148296;27;20603;-32
2023/05/18 11:31:49;;;;;;;5.07;2.70;;;21.20;47.20;;;;;;5150007;27;20403;-32
2023/05/18 11:34:35;;;;;;;5.15;2.70;;;21.30;47.00;;;;;;5146262;27;20038;-33
2023/05/18 11:37:01;;;;;;;4.95;2.78;;;21.50;44.20;;;;;;5149701;27;20042;-32
2023/05/18 11:39:27;;;;;;;5.45;2.55;;;21.60;45.20;;;;;;5144479;27;21126;-32
2023/05/18 11:42:19;;;;;;;4.53;2.85;;;21.60;45.70;;;;;;5141903;27;20030;-32
2023/05/18 11:44:54;;;;;;;5.72;2.80;;;22.10;45.70;;;;;;5148699;27;20460;-33
2023/05/18 11:47:22;;;;;;;6.97;2.95;;;22.40;45.50;;;;;;5139858;27;20443;-32
2023/05/18 11:49:49;;;;;;;4.32;2.72;;;22.40;45.40;;;;;;5150611;27;20042;-33
2023/05/18 11:52:20;;;;;;;8.57;2.83;;;22.00;44.80;;;;;;5153738;27;20046;-33
2023/05/18 11:54:52;;;;;;;5.22;3.03;;;21.70;44.70;;;;;;5154121;27;20543;-32
2023/05/18 11:57:25;;;;;;;4.63;2.75;;;21.80;45.50;;;;;;5139465;27;20038;-32
2023/05/18 11:59:55;;;;;;;;;;;21.90;45.20;;;;;;5155984;27;21465;-32
2023/05/18 12:02:25;;;;;;;5.50;2.70;;;21.90;44.10;;;;;;5149219;27;19922;-33
2023/05/18 12:04:53;;;;;;;4.82;3.10;;;22.30;45.40;;;;;;5150416;27;20533;-33
2023/05/18 12:07:20;;;;;;;3.97;2.40;;;22.30;44.40;;;;;;5153495;27;20037;-32
2023/05/18 12:09:47;;;;;;;8.23;2.50;;;22.40;44.90;;;;;;5146162;27;20038;-32
2023/05/18 12:12:22;;;;;;;4.70;2.42;;;22.70;44.20;;;;;;5151201;27;20046;-32
2023/05/18 12:14:54;;;;;;;3.13;2.50;;;23.20;44.30;;;;;;5140945;27;20045;-33
2023/05/18 12:17:21;;;;;;;6.32;2.97;;;23.10;43.80;;;;;;5132773;27;20027;-32
2023/05/18 12:19:48;;;;;;;6.40;3.05;;;23.20;43.60;;;;;;5149240;27;20109;-32
2023/05/18 12:22:14;;;;;;;6.28;2.75;;;23.30;43.10;;;;;;5151785;27;20038;-31
2023/05/18 12:24:41;;;;;;;5.38;2.42;;;23.40;43.10;;;;;;5142128;27;20479;-32
2023/05/18 12:27:11;;;;;;;4.88;2.65;;;23.50;43.60;;;;;;5139621;27;20034;-32
2023/05/18 12:29:39;;;;;;;4.80;2.67;;;23.50;41.90;;;;;;5144372;27;20087;-32
2023/05/18 12:32:09;;;;;;;6.75;2.70;;;24.00;42.20;;;;;;5147696;27;20042;-32
2023/05/18 12:34:36;;;;;;;4.95;2.67;;;24.20;42.00;;;;;;5142589;27;20038;-33
2023/05/18 12:37:02;;;;;;;4.63;2.53;;;24.00;42.20;;;;;;5147807;27;20031;-32
2023/05/18 12:39:27;;;;;;;4.47;2.70;;;24.40;41.80;;;;;;5144538;27;20126;-32
2023/05/18 12:42:06;;;;;;;4.63;2.55;;;24.20;40.90;;;;;;5139552;27;20031;-31
2023/05/18 12:44:32;;;;;;;6.70;3.13;;;24.20;41.40;;;;;;5161190;27;20480;-32
2023/05/18 12:46:58;;;;;;;4.65;2.58;;;24.60;40.80;;;;;;5167143;27;20046;-32
2023/05/18 12:49:23;;;;;;;4.88;2.65;;;24.70;40.60;;;;;;5140942;27;20041;-32
2023/05/18 12:51:54;;;;;;;4.70;2.30;;;24.70;40.70;;;;;;5167190;27;20034;-32
2023/05/18 12:54:28;;;;;;;5.93;2.60;;;24.90;41.20;;;;;;5145757;27;20045;-32
2023/05/18 12:56:59;;;;;;;5.03;2.60;;;25.10;40.60;;;;;;5152619;27;20050;-33
2023/05/18 12:59:26;;;;;;;4.03;2.55;;;25.00;40.50;;;;;;5147356;27;20030;-33